Hustle, Virginia
Current Conditions -  °F | °C
As of 10:55 AM on Friday 24 Oct 2014 (Local Time) from KXSA Reporting Station
Clear Clear  
Wind Chill: 61°   Ceiling: Unl
Heat Index: 61°   Visibility: 10mi
Dew Point: 40°   Wind: 9mph
Humidity: 45%   Direction: 330°NNW
Pressure: 29.99"   Gusts: 16mph
Location:  38.04°N, 77.07°W
Report Text: KXSA 241455Z AUTO 33008G14KT 10SM CLR 16/04 A2999 RMK AO2 T01610042
Loading
Personal Weather Stations






























Interactive Weather Map
Tropical Storm Tracking
New forecast layout! Learn more

10-Day Weather Forecast

Advertisements
Track Severe Weather on mobile